X  Chiuso Dati meteorologici dell'aviazione (METAR)     LBPD Plovdiv International Airport
Temperatura
100°F Temperatura
54°F Punto di rugiada
21% Umidità



Vento
9 MPH
14 KM/O
4 M/S
8 KTS



70°
ENE
Condizioni attuali

Prevalentemente nuvoloso Prevalentemente nuvoloso
Pressione 1011.85 (hPa) - 29.88 (inHg)
Visibilità 6 (miglio) - 9.7 (km)
Aeroporto
Codice-Aeroporto LBPD

Posizione: Plovdiv International Airport
Distanza: 14 (mi)

Metar:
LBPD 181600Z AUTO 07008KT 9999 BKN110/// OVC140/// 38/12 Q1012 NOSIG

Ore: 18-07-2024 19:00 EEST